Terminal Aerodrome Forecast
Issued by NWS

Home | Current Version | Previous Version | Text Only | Print | Product List | Glossary On
Versions: 1 2 3 4 5 6 7 8 9 10 11 12 13 14 15 16 17 18 19 20 21
000
FTUS43 KJKL 301131
TAFSME
TAF
KSME 301131Z 3012/0112 VRB05KT P6SM BKN080
     FM301400 29005KT P6SM VCSH BKN050 OVC100
     FM301600 32006KT P6SM -SHRA VCTS SCT025CB OVC050
      TEMPO 3017/3021 33010G20KT 4SM -TSRA BR BKN025CB
     FM010200 VRB05KT P6SM VCSH BKN020
     FM010900 VRB03KT P6SM BKN010=

USA.gov is the U.S. government's official web portal to all federal, state and local government web resources and services.